Time;durP1;ratioP1;P1;durP2;ratioP2;P2;SDS_P1;SDS_P2;PMS_P1;PMS_P2;Temp;Humidity;BMP_temperature;BMP_pressure;BME280_temperature;BME280_humidity;BME280_pressure;Samples;Min_cycle;Max_cycle;Signal;HPM_P1;HPM_P2
2022/08/27 00:01:41;;;;;;;9.95;2.92;;;;;;;18.93;73.64;99656.06;5050523;28;20543;-72
2022/08/27 00:04:07;;;;;;;8.07;2.67;;;;;;;18.97;73.43;99652.16;5050439;28;20049;-71
2022/08/27 00:06:37;;;;;;;10.00;3.30;;;;;;;18.94;73.48;99652.41;5049618;28;20051;-71
2022/08/27 00:09:04;;;;;;;6.68;2.92;;;;;;;18.93;73.47;99655.25;5050721;28;20501;-71
2022/08/27 00:11:30;;;;;;;6.25;2.80;;;;;;;18.96;73.50;99650.47;5050446;28;20094;-71
2022/08/27 00:14:00;;;;;;;5.18;2.92;;;;;;;18.95;73.37;99651.47;5050340;28;20669;-71
2022/08/27 00:16:27;;;;;;;5.65;2.38;;;;;;;18.96;73.13;99653.13;5049647;28;20049;-70
2022/08/27 00:18:55;;;;;;;7.50;3.22;;;;;;;19.00;73.24;99653.69;5050156;28;20044;-71
2022/08/27 00:21:22;;;;;;;12.65;3.35;;;;;;;18.99;72.92;99647.53;5050540;28;20061;-71
2022/08/27 00:23:49;;;;;;;5.10;2.47;;;;;;;19.00;72.99;99646.56;5050308;28;20057;-71
2022/08/27 00:26:16;;;;;;;5.72;2.63;;;;;;;18.96;73.14;99641.59;5049533;28;20055;-70
2022/08/27 00:28:43;;;;;;;9.18;3.50;;;;;;;18.91;73.05;99646.50;5049683;28;20059;-71
2022/08/27 00:31:11;;;;;;;5.40;2.70;;;;;;;18.85;73.57;99643.38;5050047;28;20056;-70
2022/08/27 00:33:38;;;;;;;6.13;2.83;;;;;;;18.87;73.46;99649.41;5051329;28;20053;-71
2022/08/27 00:36:04;;;;;;;9.35;2.95;;;;;;;18.94;73.18;99635.53;5060464;28;20047;-71
2022/08/27 00:38:31;;;;;;;5.90;2.17;;;;;;;18.98;72.64;99640.50;5053493;28;20051;-71
2022/08/27 00:40:59;;;;;;;5.25;2.60;;;;;;;18.94;72.81;99632.88;5051822;28;20100;-71
2022/08/27 00:43:30;;;;;;;9.20;3.95;;;;;;;18.87;73.25;99635.22;5051660;28;20135;-71
2022/08/27 00:46:04;;;;;;;10.75;3.53;;;;;;;18.86;73.15;99636.22;5050727;28;20423;-71
2022/08/27 00:48:35;;;;;;;7.28;2.30;;;;;;;18.87;73.15;99632.56;5050839;28;20051;-71
2022/08/27 00:51:02;;;;;;;10.77;2.85;;;;;;;18.86;72.93;99636.22;5051380;28;20076;-71
2022/08/27 00:53:33;;;;;;;8.43;3.55;;;;;;;18.86;72.84;99634.38;5051237;28;20083;-71
2022/08/27 00:56:04;;;;;;;8.23;2.92;;;;;;;18.82;73.12;99635.63;5048760;28;20045;-71
2022/08/27 00:58:34;;;;;;;5.57;2.58;;;;;;;18.85;72.86;99638.03;5049827;28;20055;-72
2022/08/27 01:01:01;;;;;;;6.65;2.80;;;;;;;18.83;73.14;99633.81;5049715;28;20049;-71
2022/08/27 01:03:28;;;;;;;5.18;2.65;;;;;;;18.80;72.93;99632.25;5049642;28;20048;-71
2022/08/27 01:06:01;;;;;;;7.20;3.67;;;;;;;18.82;72.82;99630.28;5048735;28;20057;-71
2022/08/27 01:08:30;;;;;;;6.53;2.47;;;;;;;18.85;72.79;99635.38;5049498;28;20423;-70
2022/08/27 01:10:59;;;;;;;7.82;3.60;;;;;;;18.86;72.70;99637.06;5049651;28;20080;-70
2022/08/27 01:13:30;;;;;;;4.85;2.75;;;;;;;18.88;72.67;99627.09;5049319;28;20102;-71
2022/08/27 01:15:58;;;;;;;7.35;2.40;;;;;;;18.89;72.10;99630.59;5041023;28;20801;-70
2022/08/27 01:18:25;;;;;;;10.48;3.72;;;;;;;18.79;72.36;99630.53;5049653;28;20523;-70
2022/08/27 01:20:59;;;;;;;5.47;2.95;;;;;;;18.72;72.71;99633.84;5049322;28;20053;-70
2022/08/27 01:23:34;;;;;;;3.97;2.08;;;;;;;18.78;72.66;99622.66;5049276;28;20126;-71
2022/08/27 01:26:05;;;;;;;10.60;3.78;;;;;;;18.81;72.35;99630.41;5048761;28;20060;-70
2022/08/27 01:28:34;;;;;;;6.15;2.47;;;;;;;18.75;72.48;99623.72;5049821;28;20048;-70
2022/08/27 01:31:01;;;;;;;7.53;2.55;;;;;;;18.75;72.18;99622.88;5053208;28;20041;-71
2022/08/27 01:33:28;;;;;;;8.35;3.13;;;;;;;18.65;72.35;99620.16;5058578;28;20087;-69
2022/08/27 01:35:55;;;;;;;6.13;2.55;;;;;;;18.61;72.86;99621.41;5055294;28;20056;-69
2022/08/27 01:38:23;;;;;;;6.70;2.80;;;;;;;18.65;72.60;99623.66;5054604;28;20514;-70
2022/08/27 01:40:50;;;;;;;5.28;2.30;;;;;;;18.68;72.51;99617.25;5050531;28;20408;-69
2022/08/27 01:43:18;;;;;;;7.85;2.55;;;;;;;18.72;72.38;99623.16;5049309;28;20500;-69
2022/08/27 01:45:48;;;;;;;7.80;3.17;;;;;;;18.69;72.36;99621.59;5048829;28;20046;-69
2022/08/27 01:48:15;;;;;;;6.28;2.25;;;;;;;18.62;72.45;99617.75;5050676;28;20154;-70
2022/08/27 01:50:43;;;;;;;8.45;2.53;;;;;;;18.64;72.15;99626.50;5049275;28;20048;-70
2022/08/27 01:53:12;;;;;;;11.57;2.85;;;;;;;18.59;72.45;99623.38;5049230;28;20056;-70
2022/08/27 01:55:41;;;;;;;7.13;3.67;;;;;;;18.57;72.42;99620.81;5048730;28;20601;-70
2022/08/27 01:58:08;;;;;;;8.38;2.22;;;;;;;18.60;72.39;99627.72;5048473;28;20045;-68
2022/08/27 02:00:40;;;;;;;8.40;3.20;;;;;;;18.60;72.08;99628.56;5048705;28;20118;-70
2022/08/27 02:03:07;;;;;;;5.18;2.92;;;;;;;18.60;72.27;99627.72;5049035;28;20211;-70
2022/08/27 02:05:35;;;;;;;5.70;2.95;;;;;;;18.50;72.15;99624.16;5048501;28;20049;-69
2022/08/27 02:08:01;;;;;;;11.60;2.90;;;;;;;18.39;72.51;99619.72;5048167;28;20045;-70
2022/08/27 02:10:31;;;;;;;9.25;4.70;;;;;;;18.34;72.65;99622.78;5048570;28;20060;-70
2022/08/27 02:12:59;;;;;;;6.20;2.50;;;;;;;18.33;72.93;99614.88;5041220;28;20136;-70
2022/08/27 02:15:26;;;;;;;6.28;2.67;;;;;;;18.29;72.74;99621.47;5048683;28;20056;-69
2022/08/27 02:17:54;;;;;;;4.78;2.55;;;;;;;18.20;73.42;99613.25;5051372;28;20045;-70
2022/08/27 02:20:22;;;;;;;10.43;2.85;;;;;;;18.28;72.92;99615.28;5052600;28;20049;-69
2022/08/27 02:22:49;;;;;;;5.95;2.00;;;;;;;18.36;73.06;99617.28;5052382;28;20049;-70
2022/08/27 02:25:18;;;;;;;10.30;3.40;;;;;;;18.47;72.54;99613.72;5052555;28;20496;-70
2022/08/27 02:27:46;;;;;;;7.07;3.15;;;;;;;18.50;72.34;99614.31;5051367;28;20485;-69
2022/08/27 02:30:15;;;;;;;4.97;2.65;;;;;;;18.54;72.14;99614.91;5052215;28;20045;-69
2022/08/27 02:32:41;;;;;;;5.15;2.67;;;;;;;18.57;72.17;99617.31;5052449;28;20057;-70
2022/08/27 02:35:09;;;;;;;8.20;2.45;;;;;;;18.56;72.16;99613.81;5052270;28;20106;-71
2022/08/27 02:37:36;;;;;;;5.13;2.78;;;;;;;18.55;72.01;99608.56;5051443;28;20048;-70
2022/08/27 02:40:04;;;;;;;4.00;2.67;;;;;;;18.60;72.00;99604.53;5052602;28;20057;-70
2022/08/27 02:42:31;;;;;;;15.07;3.85;;;;;;;18.60;71.77;99607.19;5052046;28;20118;-69
2022/08/27 02:44:57;;;;;;;7.75;3.38;;;;;;;18.55;71.90;99605.91;5054591;28;20049;-70
2022/08/27 02:47:24;;;;;;;7.13;2.28;;;;;;;18.55;71.84;99605.91;5051047;28;20048;-71
2022/08/27 02:49:51;;;;;;;11.35;2.55;;;;;;;18.50;72.09;99595.63;5052008;28;20060;-69
2022/08/27 02:52:19;;;;;;;5.97;2.65;;;;;;;18.55;71.85;99595.22;5052101;28;20389;-70
2022/08/27 02:54:46;;;;;;;6.22;2.70;;;;;;;18.55;71.88;99601.41;5051957;28;20053;-70
2022/08/27 02:57:13;;;;;;;8.02;2.83;;;;;;;18.53;72.03;99598.03;5051337;28;20087;-70
2022/08/27 02:59:40;;;;;;;5.78;2.28;;;;;;;18.54;71.92;99602.41;5052023;28;20053;-69
2022/08/27 03:02:06;;;;;;;6.30;2.10;;;;;;;18.58;71.74;99595.84;5051666;28;20051;-70
2022/08/27 03:04:33;;;;;;;7.20;2.78;;;;;;;18.61;71.59;99584.03;5052218;28;20049;-70
2022/08/27 03:06:59;;;;;;;4.82;3.05;;;;;;;18.62;71.67;99583.03;5050974;28;20564;-70
2022/08/27 03:09:27;;;;;;;5.15;3.00;;;;;;;18.60;71.76;99587.66;5051634;28;20459;-70
2022/08/27 03:11:55;;;;;;;6.18;2.63;;;;;;;18.60;71.39;99588.50;5051717;28;20053;-70
2022/08/27 03:14:21;;;;;;;4.80;2.42;;;;;;;18.59;71.31;99599.34;5051688;28;20057;-70
2022/08/27 03:16:48;;;;;;;6.13;3.10;;;;;;;18.60;71.57;99598.34;5050786;28;20037;-70
2022/08/27 03:19:14;;;;;;;9.60;2.90;;;;;;;18.59;71.24;99597.50;5052836;28;20127;-70
2022/08/27 03:21:40;;;;;;;8.23;3.00;;;;;;;18.49;71.40;99601.09;5051608;28;20482;-70
2022/08/27 03:24:08;;;;;;;7.15;2.78;;;;;;;18.41;71.83;99589.25;5051583;28;20053;-71
2022/08/27 03:26:36;;;;;;;5.80;2.42;;;;;;;18.42;71.73;99596.28;5051382;28;20059;-70
2022/08/27 03:29:03;;;;;;;3.60;2.38;;;;;;;18.43;71.44;99592.66;5051583;28;20218;-71
2022/08/27 03:31:30;;;;;;;8.23;2.50;;;;;;;18.45;71.54;99595.16;5051044;28;20079;-71
2022/08/27 03:33:59;;;;;;;8.23;2.78;;;;;;;18.41;71.42;99591.94;5051904;28;20053;-70
2022/08/27 03:36:27;;;;;;;6.70;2.95;;;;;;;18.38;71.70;99594.84;5057724;28;20055;-69
2022/08/27 03:38:54;;;;;;;11.88;3.33;;;;;;;18.40;71.72;99597.38;5068435;28;20112;-69
2022/08/27 03:41:21;;;;;;;5.25;2.53;;;;;;;18.38;71.68;99604.66;5069666;28;20045;-69
2022/08/27 03:43:51;;;;;;;5.80;2.97;;;;;;;18.34;70.96;99605.94;5070118;28;20100;-70
2022/08/27 03:46:19;;;;;;;6.45;3.13;;;;;;;18.30;71.48;99607.16;5069913;28;20045;-70
2022/08/27 03:48:45;;;;;;;13.43;3.58;;;;;;;18.35;71.47;99599.59;5068199;28;20037;-70
2022/08/27 03:51:14;;;;;;;6.10;2.53;;;;;;;18.31;71.17;99603.50;5058139;28;20055;-70
2022/08/27 03:53:43;;;;;;;9.25;3.42;;;;;;;18.29;71.33;99610.81;5055016;28;20068;-71
2022/08/27 03:56:10;;;;;;;7.38;3.20;;;;;;;18.29;71.34;99600.13;5054164;28;20483;-71
2022/08/27 03:58:37;;;;;;;7.55;2.90;;;;;;;18.33;71.19;99606.88;5054524;28;20578;-72
2022/08/27 04:01:07;;;;;;;9.02;3.10;;;;;;;18.34;70.78;99601.44;5051714;28;20049;-72
2022/08/27 04:03:34;;;;;;;5.05;2.88;;;;;;;18.35;70.67;99599.59;5049165;28;20055;-68
2022/08/27 04:06:02;;;;;;;6.18;2.60;;;;;;;18.34;70.51;99598.75;5050370;28;20056;-69
2022/08/27 04:08:29;;;;;;;10.30;3.65;;;;;;;18.34;70.19;99601.44;5050272;28;20083;-68
2022/08/27 04:10:56;;;;;;;6.57;2.88;;;;;;;18.32;70.14;99599.88;5050695;28;20049;-69
2022/08/27 04:13:23;;;;;;;14.32;2.92;;;;;;;18.28;70.29;99604.59;5050311;28;20821;-69
2022/08/27 04:15:53;;;;;;;4.38;2.38;;;;;;;18.29;70.16;99608.13;5049976;28;20147;-70
2022/08/27 04:18:21;;;;;;;9.32;4.80;;;;;;;18.27;70.02;99607.41;5050185;28;20552;-72
2022/08/27 04:20:51;;;;;;;8.73;2.92;;;;;;;18.29;69.97;99605.47;5050450;28;20055;-69
2022/08/27 04:23:18;;;;;;;8.85;3.70;;;;;;;18.26;70.24;99609.22;5050586;28;20045;-69
2022/08/27 04:25:45;;;;;;;6.32;2.28;;;;;;;18.26;70.35;99608.38;5050045;28;20045;-68
2022/08/27 04:28:13;;;;;;;8.55;2.80;;;;;;;18.27;69.77;99612.75;5049714;28;20047;-66
2022/08/27 04:30:41;;;;;;;10.73;3.58;;;;;;;18.25;69.60;99615.53;5050208;28;20049;-68
2022/08/27 04:33:08;;;;;;;7.45;2.88;;;;;;;18.24;70.04;99613.84;5050479;28;20544;-69
2022/08/27 04:35:36;;;;;;;7.20;4.50;;;;;;;18.23;70.06;99615.66;5049865;28;20083;-72
2022/08/27 04:38:03;;;;;;;8.05;3.88;;;;;;;18.23;69.73;99610.31;5052151;28;20072;-72
2022/08/27 04:43:12;;;;;;;7.88;2.45;;;;;;;18.14;69.91;99621.78;5050227;28;20068;-70
2022/08/27 04:45:43;;;;;;;6.60;2.72;;;;;;;18.16;69.85;99622.50;5049938;28;20493;-71
2022/08/27 04:48:09;;;;;;;7.25;4.50;;;;;;;18.13;69.59;99616.56;5049050;28;20136;-73
2022/08/27 04:50:40;;;;;;;6.75;3.50;;;;;;;18.10;69.65;99620.34;5050024;28;20060;-69
2022/08/27 04:53:07;;;;;;;4.63;3.15;;;;;;;18.08;70.14;99624.09;5049726;28;20530;-71
2022/08/27 04:55:34;;;;;;;6.20;3.78;;;;;;;18.09;70.16;99631.13;5049802;28;20053;-70
2022/08/27 04:58:00;;;;;;;6.35;3.25;;;;;;;18.07;69.87;99623.25;5048859;28;20048;-68
2022/08/27 05:00:27;;;;;;;7.68;3.55;;;;;;;18.11;70.13;99622.00;5049916;28;20056;-70
2022/08/27 05:02:53;;;;;;;8.18;3.00;;;;;;;18.12;69.64;99631.72;5049528;28;20139;-71
2022/08/27 05:05:20;;;;;;;7.22;3.15;;;;;;;18.09;69.58;99629.31;5049712;28;20055;-69
2022/08/27 05:07:48;;;;;;;11.27;3.97;;;;;;;18.09;69.57;99632.00;5049017;28;20049;-69
2022/08/27 05:10:14;;;;;;;7.05;2.45;;;;;;;18.07;69.66;99633.09;5049379;28;20055;-69
2022/08/27 05:12:41;;;;;;;5.90;2.63;;;;;;;18.03;69.21;99633.31;5049727;28;20048;-69
2022/08/27 05:15:09;;;;;;;9.68;3.53;;;;;;;17.99;69.28;99631.03;5049745;28;20211;-68
2022/08/27 05:17:35;;;;;;;7.97;3.33;;;;;;;17.98;69.22;99635.53;5048857;28;20049;-70
2022/08/27 05:20:04;;;;;;;7.75;2.78;;;;;;;17.99;69.36;99628.38;5049435;28;20053;-72
2022/08/27 05:22:31;;;;;;;10.07;3.42;;;;;;;17.95;69.15;99626.94;5049296;28;20045;-71
2022/08/27 05:25:00;;;;;;;11.88;4.20;;;;;;;17.96;68.84;99636.63;5049376;28;20424;-70
2022/08/27 05:27:26;;;;;;;12.65;3.00;;;;;;;17.95;68.90;99629.63;5048502;28;20088;-72
2022/08/27 05:29:53;;;;;;;15.85;3.75;;;;;;;17.95;68.60;99642.94;5048877;28;20045;-72
2022/08/27 05:32:20;;;;;;;5.43;2.97;;;;;;;17.97;68.88;99643.69;5049164;28;20134;-71
2022/08/27 05:34:46;;;;;;;16.33;3.78;;;;;;;17.98;68.14;99645.34;5049271;28;20048;-71
2022/08/27 05:37:13;;;;;;;12.98;3.88;;;;;;;17.93;68.57;99644.91;5048632;28;20082;-70
2022/08/27 05:39:40;;;;;;;6.53;2.67;;;;;;;17.95;68.36;99640.28;5049853;28;20051;-71
2022/08/27 05:42:08;;;;;;;5.65;3.45;;;;;;;17.97;68.17;99647.19;5050262;28;20059;-71
2022/08/27 05:44:34;;;;;;;4.07;2.53;;;;;;;17.97;67.91;99646.34;5051156;28;20132;-70
2022/08/27 05:47:02;;;;;;;12.95;3.72;;;;;;;17.95;68.29;99649.13;5050889;28;20059;-72
2022/08/27 05:49:30;;;;;;;5.18;2.97;;;;;;;17.96;67.86;99652.63;5050963;28;20049;-72
2022/08/27 05:51:57;;;;;;;8.20;4.07;;;;;;;17.93;67.91;99655.56;5053915;28;20052;-72
2022/08/27 05:54:23;;;;;;;5.55;3.22;;;;;;;17.96;68.02;99653.47;5056963;28;20752;-72
2022/08/27 05:56:50;;;;;;;6.43;3.58;;;;;;;17.96;67.53;99656.16;5054369;28;20040;-71
2022/08/27 06:02:04;;;;;;;9.77;4.90;;;;;;;17.91;67.49;99653.00;5053427;28;20791;-69
2022/08/27 06:04:31;;;;;;;9.80;3.65;;;;;;;17.89;67.36;99644.28;5052648;28;20053;-73
2022/08/27 06:06:57;;;;;;;8.18;3.65;;;;;;;17.93;67.54;99647.56;5052379;28;20131;-72
2022/08/27 06:09:27;;;;;;;8.70;3.10;;;;;;;17.98;66.41;99640.03;5053050;28;20053;-70
2022/08/27 06:11:55;;;;;;;8.05;3.78;;;;;;;17.98;66.49;99646.19;5052894;28;20496;-69
2022/08/27 06:14:23;;;;;;;4.43;2.88;;;;;;;17.95;66.58;99640.28;5052748;28;20135;-68
2022/08/27 06:16:50;;;;;;;7.40;3.50;;;;;;;17.95;66.47;99645.63;5051965;28;20053;-69
2022/08/27 06:19:17;;;;;;;8.10;4.13;;;;;;;17.93;66.75;99645.72;5052815;28;20045;-68
2022/08/27 06:21:44;;;;;;;7.22;3.70;;;;;;;17.99;66.43;99644.38;5052620;28;20110;-69
2022/08/27 06:24:12;;;;;;;6.75;3.45;;;;;;;18.01;66.55;99642.44;5052593;28;20048;-69
2022/08/27 06:26:41;;;;;;;5.95;3.13;;;;;;;18.07;66.49;99643.78;5052221;28;20049;-69
2022/08/27 06:29:08;;;;;;;8.93;3.28;;;;;;;18.08;66.19;99640.13;5052145;28;20052;-70
2022/08/27 06:31:36;;;;;;;8.15;3.75;;;;;;;18.14;66.22;99648.47;5052567;28;20057;-70
2022/08/27 06:34:05;;;;;;;14.57;4.32;;;;;;;18.05;65.89;99646.56;5052645;28;20048;-70
2022/08/27 06:36:38;;;;;;;8.02;3.40;;;;;;;17.95;66.30;99649.13;5052109;28;20416;-71
2022/08/27 06:39:06;;;;;;;9.40;3.40;;;;;;;17.99;66.60;99647.03;5054798;28;20041;-71
2022/08/27 06:41:33;;;;;;;7.97;4.13;;;;;;;18.01;66.59;99640.59;5052142;28;20144;-71
2022/08/27 06:44:00;;;;;;;8.23;3.22;;;;;;;18.00;66.49;99646.94;5051895;28;20048;-70
2022/08/27 06:46:28;;;;;;;9.23;4.97;;;;;;;17.80;66.80;99640.56;5050885;28;20055;-69
2022/08/27 06:49:00;;;;;;;7.60;3.85;;;;;;;17.74;67.58;99642.84;5052189;28;20052;-70
2022/08/27 06:51:29;;;;;;;7.68;3.90;;;;;;;17.67;68.15;99638.97;5058490;28;20083;-71
2022/08/27 06:53:58;;;;;;;8.40;3.75;;;;;;;17.55;68.57;99643.50;5050679;28;20049;-71
2022/08/27 06:56:25;;;;;;;11.05;3.65;;;;;;;17.63;68.17;99635.72;5054645;28;20052;-70
2022/08/27 06:58:54;;;;;;;7.10;3.17;;;;;;;17.62;68.34;99638.50;5058737;28;20055;-71
2022/08/27 07:01:23;;;;;;;11.50;3.83;;;;;;;17.58;68.53;99637.91;5056723;28;20072;-70
2022/08/27 07:03:50;;;;;;;9.45;3.97;;;;;;;17.59;68.39;99640.44;5051098;28;20052;-70
2022/08/27 07:06:18;;;;;;;8.82;4.10;;;;;;;17.70;68.21;99642.25;5050705;28;20052;-70
2022/08/27 07:08:45;;;;;;;9.50;4.05;;;;;;;17.74;68.28;99641.00;5050033;28;20535;-70
2022/08/27 07:11:14;;;;;;;8.70;3.75;;;;;;;17.68;70.89;99635.34;5037289;28;20606;-63
2022/08/27 07:13:41;;;;;;;7.32;3.13;;;;;;;18.22;70.38;99643.31;5031410;28;20742;-51
2022/08/27 07:16:10;;;;;;;6.00;3.38;;;;;;;18.49;68.01;99639.31;5030702;28;20060;-49
2022/08/27 07:18:37;;;;;;;6.40;3.17;;;;;;;18.59;66.19;99648.25;5031164;28;20050;-50
2022/08/27 07:21:04;;;;;;;9.50;3.92;;;;;;;18.48;66.33;99648.28;5031207;28;20081;-47
2022/08/27 07:23:34;;;;;;;7.28;3.75;;;;;;;18.40;66.17;99648.94;5030990;28;20170;-53
2022/08/27 07:26:01;;;;;;;8.00;4.22;;;;;;;18.33;66.57;99654.91;5030644;28;20049;-49
2022/08/27 07:28:28;;;;;;;6.07;3.78;;;;;;;18.46;66.90;99658.28;5030942;28;20416;-47
2022/08/27 07:30:55;;;;;;;7.88;4.05;;;;;;;18.71;65.81;99656.19;5032011;28;20057;-52
2022/08/27 07:33:22;;;;;;;8.18;4.30;;;;;;;18.70;65.37;99659.81;5032779;28;20136;-54
2022/08/27 07:35:48;;;;;;;8.85;4.40;;;;;;;18.47;65.85;99657.28;5032177;28;20060;-51
2022/08/27 07:38:15;;;;;;;8.50;5.35;;;;;;;18.61;68.19;99658.81;5046626;28;20047;-47
2022/08/27 07:40:43;;;;;;;9.80;4.25;;;;;;;18.77;68.21;99667.22;5045052;28;20052;-52
2022/08/27 07:45:55;;;;;;;5.63;3.70;;;;;;;18.84;66.21;99675.56;5029952;28;20059;-50
2022/08/27 07:48:23;;;;;;;10.40;5.13;;;;;;;18.59;66.01;99677.63;5044122;28;20132;-53
2022/08/27 07:50:49;;;;;;;7.80;4.85;;;;;;;18.66;66.93;99673.44;5055050;28;20052;-50
2022/08/27 07:53:16;;;;;;;9.20;5.00;;;;;;;18.84;65.66;99678.22;5070296;28;20049;-52
2022/08/27 07:55:44;;;;;;;5.72;3.85;;;;;;;18.91;66.26;99675.88;5056553;28;20060;-51
2022/08/27 07:58:12;;;;;;;7.72;4.13;;;;;;;18.63;66.87;99679.06;5049698;28;20143;-52
2022/08/27 08:00:41;;;;;;;8.38;4.13;;;;;;;18.48;66.35;99684.81;5050231;28;20041;-52
2022/08/27 08:03:07;;;;;;;7.40;4.00;;;;;;;18.39;66.73;99679.28;5050246;28;20049;-62
2022/08/27 08:05:34;;;;;;;8.98;4.55;;;;;;;18.35;66.87;99685.00;5050516;28;20083;-71
2022/08/27 08:08:01;;;;;;;10.40;3.88;;;;;;;18.31;67.01;99684.44;5049716;28;20174;-70
2022/08/27 08:10:27;;;;;;;6.60;5.25;;;;;;;18.31;67.22;99683.56;5050576;28;20082;-71
2022/08/27 08:12:55;;;;;;;5.85;3.35;;;;;;;18.23;67.55;99684.19;5050493;28;20607;-71
2022/08/27 08:15:22;;;;;;;5.95;3.60;;;;;;;18.26;67.69;99681.25;5049532;28;20045;-71
2022/08/27 08:17:48;;;;;;;8.85;4.47;;;;;;;18.29;67.45;99682.88;5049667;28;20088;-70
2022/08/27 08:20:17;;;;;;;8.30;4.07;;;;;;;18.28;67.94;99691.81;5050350;28;20060;-71
2022/08/27 08:22:43;;;;;;;10.43;4.85;;;;;;;18.32;67.60;99686.09;5050518;28;20048;-73
2022/08/27 08:25:12;;;;;;;8.38;4.80;;;;;;;18.31;67.56;99687.09;5050742;28;20052;-71
2022/08/27 08:27:39;;;;;;;8.35;6.07;;;;;;;18.26;68.26;99691.94;5049549;28;20052;-72
2022/08/27 08:30:09;;;;;;;11.52;5.63;;;;;;;18.25;68.28;99695.59;5062311;28;20134;-71
2022/08/27 08:32:36;;;;;;;9.98;4.93;;;;;;;18.19;68.47;99694.28;5069619;28;20055;-70
2022/08/27 08:35:05;;;;;;;6.22;4.53;;;;;;;18.06;69.26;99695.41;5069525;28;20053;-73
2022/08/27 08:37:32;;;;;;;10.52;4.68;;;;;;;17.98;69.04;99698.72;5059251;28;20075;-74
2022/08/27 08:39:58;;;;;;;8.52;4.72;;;;;;;17.88;69.15;99697.75;5050015;28;20045;-73
2022/08/27 08:42:34;;;;;;;7.40;4.90;;;;;;;17.84;69.88;99702.47;5048605;28;21086;-73
2022/08/27 08:45:04;;;;;;;6.85;4.75;;;;;;;17.71;70.27;99702.59;5048671;28;20049;-72
2022/08/27 08:47:41;;;;;;;11.30;5.32;;;;;;;17.56;70.98;99695.84;5040052;28;20050;-73
2022/08/27 08:50:12;;;;;;;13.15;4.95;;;;;;;17.55;71.08;99702.16;5029527;28;20045;-72
2022/08/27 08:52:46;;;;;;;12.73;5.40;;;;;;;17.56;71.45;99701.16;5048939;28;20055;-73
2022/08/27 08:55:28;;;;;;;11.25;5.07;;;;;;;17.61;71.11;99709.66;5049848;28;20048;-72
2022/08/27 08:58:09;;;;;;;9.30;4.50;;;;;;;17.69;70.62;99709.88;5049177;28;20049;-72
2022/08/27 09:00:38;;;;;;;7.75;4.72;;;;;;;17.71;70.58;99712.44;5050394;28;20516;-72
2022/08/27 09:03:06;;;;;;;6.57;3.95;;;;;;;17.66;70.34;99715.44;5050200;28;20060;-71
2022/08/27 09:05:36;;;;;;;10.93;5.45;;;;;;;17.57;70.76;99708.19;5051805;28;20155;-72
2022/08/27 09:08:11;;;;;;;15.52;4.82;;;;;;;17.47;71.42;99717.88;5056983;28;20063;-72
2022/08/27 09:10:43;;;;;;;11.90;4.68;;;;;;;17.53;72.00;99717.41;5058207;28;20080;-73
2022/08/27 09:13:20;;;;;;;9.30;3.83;;;;;;;17.63;71.93;99722.88;5057566;28;20057;-71
2022/08/27 09:15:47;;;;;;;17.05;5.45;;;;;;;17.62;72.23;99715.81;5056646;28;20055;-71
2022/08/27 09:18:16;;;;;;;12.82;4.68;;;;;;;17.42;73.63;99714.72;5057062;28;20055;-73
2022/08/27 09:20:46;;;;;;;9.40;4.38;;;;;;;17.34;74.39;99720.66;5056198;28;20045;-71
2022/08/27 09:23:19;;;;;;;16.00;4.75;;;;;;;17.19;74.59;99722.72;5057270;28;20075;-72
2022/08/27 09:25:46;;;;;;;9.23;4.53;;;;;;;16.98;76.02;99727.03;5054670;28;20056;-73
2022/08/27 09:30:59;;;;;;;8.15;4.72;;;;;;;17.03;76.14;99732.84;5057476;28;20152;-72
2022/08/27 09:33:27;;;;;;;8.90;4.60;;;;;;;16.99;76.72;99734.91;5058581;28;20045;-72
2022/08/27 09:35:54;;;;;;;10.75;6.03;;;;;;;16.86;78.33;99736.81;5062089;28;20037;-72
2022/08/27 09:38:28;;;;;;;10.10;5.07;;;;;;;16.73;79.84;99734.19;5063520;28;20060;-72
2022/08/27 09:40:59;;;;;;;10.13;5.30;;;;;;;16.72;81.46;99744.00;5065498;28;20076;-71
2022/08/27 09:43:28;;;;;;;12.65;5.45;;;;;;;16.88;82.31;99742.88;5050809;28;20048;-52
2022/08/27 09:45:59;;;;;;;14.30;6.35;;;;;;;17.00;82.32;99741.94;5049456;28;20152;-48
2022/08/27 09:48:29;;;;;;;8.00;4.38;;;;;;;17.37;79.53;99745.25;5045855;28;20084;-49
2022/08/27 09:50:58;;;;;;;9.65;4.63;;;;;;;17.54;79.35;99745.75;5047867;28;20570;-48
2022/08/27 09:53:26;;;;;;;8.55;4.30;;;;;;;17.69;77.63;99747.19;5048269;28;20049;-54
2022/08/27 09:55:57;;;;;;;10.82;4.32;;;;;;;17.74;77.67;99749.50;5049597;28;20068;-48
2022/08/27 09:58:27;;;;;;;8.52;4.72;;;;;;;17.80;76.19;99755.22;5048008;28;20045;-50
2022/08/27 10:01:00;;;;;;;12.23;4.85;;;;;;;17.77;76.17;99744.78;5048628;28;20049;-53
2022/08/27 10:03:29;;;;;;;10.45;4.93;;;;;;;17.81;75.91;99753.41;5048421;28;20127;-49
2022/08/27 10:05:56;;;;;;;6.05;4.43;;;;;;;17.87;75.38;99749.41;5048136;28;20087;-57
2022/08/27 10:08:28;;;;;;;9.02;4.15;;;;;;;17.90;75.57;99747.34;5049395;28;20088;-54
2022/08/27 10:10:58;;;;;;;10.38;4.82;;;;;;;17.88;76.15;99743.94;5048815;28;20052;-53
2022/08/27 10:13:32;;;;;;;6.25;4.35;;;;;;;17.96;75.63;99741.50;5049159;28;20139;-53
2022/08/27 10:16:36;;;;;;;8.77;4.32;;;;;;;17.93;75.57;99740.91;5048293;28;20080;-52
2022/08/27 10:19:22;;;;;;;7.43;4.07;;;;;;;17.76;76.93;99744.91;5007671;28;20041;-54
2022/08/27 10:21:52;;;;;;;;;;;;;;;17.79;77.33;99742.84;5049458;28;20045;-50
2022/08/27 10:24:30;;;;;;;9.05;5.40;;;;;;;17.59;78.56;99746.22;5049205;28;20273;-51
2022/08/27 10:27:09;;;;;;;9.57;5.25;;;;;;;17.68;78.42;99750.84;5049261;28;20071;-54
2022/08/27 10:29:45;;;;;;;10.20;7.15;;;;;;;17.59;78.86;99747.06;5028509;28;20050;-53
2022/08/27 10:32:26;;;;;;;9.88;7.65;;;;;;;17.55;79.54;99744.81;5027688;28;20064;-53
2022/08/27 10:35:04;;;;;;;11.10;8.40;;;;;;;17.64;78.68;99741.38;5027969;28;20428;-49
2022/08/27 10:37:39;;;;;;;10.70;8.90;;;;;;;17.68;79.16;99744.66;5046295;28;20056;-52
2022/08/27 10:40:13;;;;;;;14.90;10.50;;;;;;;17.56;80.51;99747.31;5051996;28;20140;-50
2022/08/27 10:42:52;;;;;;;12.18;9.15;;;;;;;17.56;79.97;99743.81;5052053;28;20053;-51
2022/08/27 10:45:34;;;;;;;8.90;7.72;;;;;;;17.56;79.70;99752.66;5051696;28;20084;-51
2022/08/27 10:48:09;;;;;;;12.77;9.57;;;;;;;17.52;78.57;99751.22;5050482;28;20500;-55
2022/08/27 10:50:42;;;;;;;10.82;9.70;;;;;;;17.53;79.51;99752.91;5051685;28;20390;-55
2022/08/27 10:53:16;;;;;;;10.68;9.38;;;;;;;17.59;78.79;99747.06;5051656;28;20140;-56
2022/08/27 10:55:50;;;;;;;17.27;10.88;;;;;;;17.60;79.25;99754.13;5051537;28;20053;-47
2022/08/27 10:58:39;;;;;;;14.80;12.68;;;;;;;17.60;79.19;99746.13;5051524;28;20063;-69
2022/08/27 11:01:16;;;;;;;13.40;11.07;;;;;;;17.49;80.16;99756.78;5052105;28;20132;-71
2022/08/27 11:03:47;;;;;;;12.30;9.70;;;;;;;17.36;79.58;99754.22;5051775;28;20055;-75
2022/08/27 11:06:24;;;;;;;10.68;7.30;;;;;;;17.12;80.02;99754.31;5051227;28;20053;-72
2022/08/27 11:08:55;;;;;;;7.75;5.30;;;;;;;17.05;81.85;99755.72;5051532;28;20064;-70
2022/08/27 11:11:33;;;;;;;8.68;6.07;;;;;;;17.01;82.53;99751.63;5051823;28;20420;-71
2022/08/27 11:14:01;;;;;;;9.35;5.00;;;;;;;16.98;82.78;99751.00;5051507;28;20114;-70
2022/08/27 11:16:34;;;;;;;5.30;4.43;;;;;;;17.02;83.09;99748.00;5050873;28;20132;-69
2022/08/27 11:19:06;;;;;;;9.88;5.93;;;;;;;16.99;82.79;99750.91;5051045;28;20049;-72
2022/08/27 11:21:44;;;;;;;6.40;5.20;;;;;;;17.01;84.02;99751.63;5051338;28;20048;-71
2022/08/27 11:24:22;;;;;;;7.80;4.82;;;;;;;17.02;83.79;99757.81;5051111;28;20059;-72
2022/08/27 11:26:51;;;;;;;5.70;4.28;;;;;;;17.02;83.67;99755.13;5050969;28;20053;-70
2022/08/27 11:29:25;;;;;;;6.95;4.60;;;;;;;17.05;82.37;99746.91;5050748;28;20088;-71
2022/08/27 11:31:58;;;;;;;15.55;9.60;;;;;;;17.05;82.05;99746.91;5051292;28;20131;-71
2022/08/27 11:34:34;;;;;;;9.43;5.05;;;;;;;17.01;82.16;99746.31;5051347;28;20493;-71
2022/08/27 11:37:12;;;;;;;;;;;;;;;16.90;81.34;99757.75;5036279;28;20056;-71
2022/08/27 11:39:59;;;;;;;7.80;4.53;;;;;;;16.99;82.81;99753.56;5051109;28;19944;-71
2022/08/27 11:42:36;;;;;;;12.48;7.93;;;;;;;17.07;82.06;99753.81;5051052;28;20586;-71
2022/08/27 11:45:09;;;;;;;7.88;5.35;;;;;;;17.06;81.88;99754.78;5051281;28;20424;-72
2022/08/27 11:47:36;;;;;;;5.72;4.40;;;;;;;17.09;81.59;99751.03;5050484;28;20045;-72
2022/08/27 11:50:07;;;;;;;15.80;6.88;;;;;;;17.08;79.36;99751.97;5053159;28;20041;-70
2022/08/27 11:52:40;;;;;;;7.45;4.35;;;;;;;17.05;79.42;99746.91;5070862;28;20102;-71